Terminal Aerodrome Forecast
Issued by NWS Pueblo, CO

Home | Current Version | Previous Version | Text Only | Print | Product List | Glossary On
Versions: 1 2 3 4 5 6 7 8 9 10 11 12 13 14 15 16 17 18 19 20 21 22 23 24 25 26 27 28 29 30
000
FTUS45 KPUB 021120
TAFCOS
TAF
KCOS 021120Z 0212/0312 34014KT P6SM BKN090
     FM021600 32009KT P6SM SCT090
     FM021900 13009KT P6SM FEW090 SCT150
     FM030200 36008KT P6SM SCT100
     FM030900 35015G25KT P6SM FEW020 SCT050=

USA.gov is the U.S. government's official web portal to all federal, state and local government web resources and services.